Time;durP1;ratioP1;P1;durP2;ratioP2;P2;SDS_P1;SDS_P2;PMS_P1;PMS_P2;Temp;Humidity;BMP_temperature;BMP_pressure;BME280_temperature;BME280_humidity;BME280_pressure;Samples;Min_cycle;Max_cycle;Signal;HPM_P1;HPM_P2
2021/12/03 00:00:02;;;;;;;13.23;3.30;;;;;;;;;;5004764;28;20085;-78
2021/12/03 00:02:30;;;;;;;14.43;3.22;;;;;;;;;;5012172;28;20089;-78
2021/12/03 00:04:57;;;;;;;15.73;3.70;;;;;;;;;;5008671;28;20057;-78
2021/12/03 00:07:24;;;;;;;15.70;3.30;;;;;;;;;;5007882;28;20585;-78
2021/12/03 00:09:51;;;;;;;14.63;3.92;;;;;;;;;;5006343;28;20092;-78
2021/12/03 00:12:18;;;;;;;12.88;3.38;;;;;;;;;;4990757;28;20108;-78
2021/12/03 00:14:45;;;;;;;12.20;3.63;;;;;;;;;;5008188;28;20660;-78
2021/12/03 00:17:13;;;;;;;19.48;2.83;;;;;;;;;;5008596;28;20081;-78
2021/12/03 00:19:40;;;;;;;17.13;4.78;;;;;;;;;;4986621;28;20463;-78
2021/12/03 00:22:08;;;;;;;8.40;3.53;;;;;;;;;;5000954;28;20104;-78
2021/12/03 00:24:35;;;;;;;9.70;3.40;;;;;;;;;;5008613;28;20829;-78
2021/12/03 00:27:04;;;;;;;7.90;2.90;;;;;;;;;;5008986;28;20089;-78
2021/12/03 00:29:31;;;;;;;14.98;3.38;;;;;;;;;;5009612;28;20460;-78
2021/12/03 00:31:58;;;;;;;12.85;4.07;;;;;;;;;;4993580;28;20073;-78
2021/12/03 00:34:27;;;;;;;16.85;3.97;;;;;;;;;;5006778;28;20109;-78
2021/12/03 00:36:55;;;;;;;15.23;3.70;;;;;;;;;;4984264;28;20078;-78
2021/12/03 00:39:22;;;;;;;13.98;4.00;;;;;;;;;;5008935;28;20165;-78
2021/12/03 00:41:56;;;;;;;14.18;4.32;;;;;;;;;;4993928;28;20077;-78
2021/12/03 00:44:25;;;;;;;20.45;4.03;;;;;;;;;;4994154;28;20081;-78
2021/12/03 00:46:52;;;;;;;10.95;4.47;;;;;;;;;;5012016;28;20107;-78
2021/12/03 00:49:19;;;;;;;14.38;4.15;;;;;;;;;;5010991;28;20052;-79
2021/12/03 00:51:46;;;;;;;11.05;4.45;;;;;;;;;;5013532;28;20491;-78
2021/12/03 00:54:14;;;;;;;11.40;5.03;;;;;;;;;;5022372;28;20049;-78
2021/12/03 00:56:41;;;;;;;9.80;4.28;;;;;;;;;;5011271;28;20077;-78
2021/12/03 00:59:08;;;;;;;15.82;4.45;;;;;;;;;;5009382;28;20145;-78
2021/12/03 01:01:36;;;;;;;17.67;4.70;;;;;;;;;;5017142;28;20128;-78
2021/12/03 01:04:03;;;;;;;12.23;4.47;;;;;;;;;;5030457;28;20049;-78
2021/12/03 01:06:30;;;;;;;12.75;4.85;;;;;;;;;;5011560;28;20467;-78
2021/12/03 01:08:58;;;;;;;18.65;5.10;;;;;;;;;;4997151;28;20054;-78
2021/12/03 01:11:25;;;;;;;18.15;5.18;;;;;;;;;;5006251;28;20163;-79
2021/12/03 01:13:57;;;;;;;30.05;7.10;;;;;;;;;;5004327;28;20046;-78
2021/12/03 01:16:24;;;;;;;16.92;5.10;;;;;;;;;;4974599;28;20056;-78
2021/12/03 01:18:51;;;;;;;23.58;5.55;;;;;;;;;;4975554;28;20077;-78
2021/12/03 01:21:18;;;;;;;16.00;5.93;;;;;;;;;;4989774;28;20050;-78
2021/12/03 01:23:46;;;;;;;13.95;5.55;;;;;;;;;;4993613;28;20101;-78
2021/12/03 01:26:13;;;;;;;20.60;5.25;;;;;;;;;;4994556;28;20124;-78
2021/12/03 01:28:41;;;;;;;18.90;5.20;;;;;;;;;;4994175;28;20132;-79
2021/12/03 01:31:08;;;;;;;13.25;4.93;;;;;;;;;;5016172;28;20053;-76
2021/12/03 01:33:35;;;;;;;21.67;5.88;;;;;;;;;;5020620;28;20069;-76
2021/12/03 01:36:03;;;;;;;23.00;6.75;;;;;;;;;;5014162;28;20109;-76
2021/12/03 01:38:30;;;;;;;16.90;6.15;;;;;;;;;;5010796;28;20077;-76
2021/12/03 01:40:57;;;;;;;24.85;6.88;;;;;;;;;;5010267;28;20124;-75
2021/12/03 01:43:26;;;;;;;20.08;6.43;;;;;;;;;;4992298;28;20120;-76
2021/12/03 01:45:58;;;;;;;23.35;6.13;;;;;;;;;;4993291;28;20121;-75
2021/12/03 01:48:25;;;;;;;18.17;6.80;;;;;;;;;;4990947;28;20530;-76
2021/12/03 01:50:53;;;;;;;16.23;6.78;;;;;;;;;;4990665;28;20089;-76
2021/12/03 01:53:22;;;;;;;19.45;7.22;;;;;;;;;;5002580;28;20132;-78
2021/12/03 01:55:50;;;;;;;29.08;7.70;;;;;;;;;;5002894;28;20046;-77
2021/12/03 01:58:17;;;;;;;19.00;7.28;;;;;;;;;;5011025;28;20081;-77
2021/12/03 02:00:47;;;;;;;24.30;7.65;;;;;;;;;;4994845;28;20049;-77
2021/12/03 02:03:15;;;;;;;19.98;7.60;;;;;;;;;;5000056;28;20049;-77
2021/12/03 02:05:44;;;;;;;29.10;7.63;;;;;;;;;;4992311;28;20136;-77
2021/12/03 02:08:11;;;;;;;20.92;6.65;;;;;;;;;;5009693;28;20490;-77
2021/12/03 02:10:39;;;;;;;18.33;7.60;;;;;;;;;;5009931;28;20141;-77
2021/12/03 02:13:07;;;;;;;21.23;6.85;;;;;;;;;;4989625;28;20088;-77
2021/12/03 02:15:34;;;;;;;27.45;6.88;;;;;;;;;;5002931;28;20132;-77
2021/12/03 02:18:01;;;;;;;22.42;7.55;;;;;;;;;;4974472;28;20085;-76
2021/12/03 02:20:28;;;;;;;20.85;7.18;;;;;;;;;;4972841;28;20128;-77
2021/12/03 02:22:55;;;;;;;19.98;7.25;;;;;;;;;;5008762;28;20338;-77
2021/12/03 02:25:23;;;;;;;19.27;8.05;;;;;;;;;;5002366;28;20466;-77
2021/12/03 02:27:52;;;;;;;23.98;8.77;;;;;;;;;;5009606;28;20893;-77
2021/12/03 02:30:20;;;;;;;29.33;8.75;;;;;;;;;;5007731;28;20137;-77
2021/12/03 02:32:49;;;;;;;24.00;8.85;;;;;;;;;;5016633;28;20077;-76
2021/12/03 02:35:17;;;;;;;25.70;7.80;;;;;;;;;;4996390;28;20417;-77
2021/12/03 02:37:44;;;;;;;30.90;8.27;;;;;;;;;;5007900;28;20051;-76
2021/12/03 02:40:12;;;;;;;21.63;7.82;;;;;;;;;;5007122;28;20128;-76
2021/12/03 02:42:39;;;;;;;26.17;8.50;;;;;;;;;;4990834;28;20483;-76
2021/12/03 02:45:06;;;;;;;25.42;8.73;;;;;;;;;;5004043;28;20141;-77
2021/12/03 02:47:34;;;;;;;21.50;9.02;;;;;;;;;;5007950;28;20144;-76
2021/12/03 02:50:01;;;;;;;22.80;8.23;;;;;;;;;;5007324;28;20092;-76
2021/12/03 02:52:29;;;;;;;28.63;9.07;;;;;;;;;;5008404;28;20119;-77
2021/12/03 02:54:56;;;;;;;25.55;8.48;;;;;;;;;;5005036;28;20137;-77
2021/12/03 02:57:23;;;;;;;23.85;8.27;;;;;;;;;;5006440;28;20487;-77
2021/12/03 02:59:51;;;;;;;20.67;8.68;;;;;;;;;;4990419;28;20754;-77
2021/12/03 03:02:18;;;;;;;23.80;8.80;;;;;;;;;;5020949;28;20089;-77
2021/12/03 03:04:51;;;;;;;21.92;8.57;;;;;;;;;;5013365;28;20061;-76
2021/12/03 03:07:18;;;;;;;23.27;9.85;;;;;;;;;;5007676;28;20046;-77
2021/12/03 03:09:46;;;;;;;26.15;8.10;;;;;;;;;;5007938;28;20133;-77
2021/12/03 03:12:13;;;;;;;31.30;10.68;;;;;;;;;;4992177;28;20082;-77
2021/12/03 03:14:52;;;;;;;23.67;8.80;;;;;;;;;;4989953;28;20165;-77
2021/12/03 03:17:20;;;;;;;24.00;8.80;;;;;;;;;;4988923;28;20131;-77
2021/12/03 03:19:47;;;;;;;23.35;8.68;;;;;;;;;;4988511;28;20149;-77
2021/12/03 03:22:14;;;;;;;23.70;8.80;;;;;;;;;;4988671;28;20054;-77
2021/12/03 03:24:41;;;;;;;25.75;9.43;;;;;;;;;;4973333;28;20085;-77
2021/12/03 03:27:09;;;;;;;34.97;10.57;;;;;;;;;;4989477;28;20517;-77
2021/12/03 03:29:36;;;;;;;23.85;9.90;;;;;;;;;;5007797;28;20590;-77
2021/12/03 03:32:03;;;;;;;25.90;8.75;;;;;;;;;;5018140;28;20049;-77
2021/12/03 03:34:31;;;;;;;27.90;10.13;;;;;;;;;;5007729;28;20650;-77
2021/12/03 03:36:58;;;;;;;32.50;10.23;;;;;;;;;;5009901;28;20077;-77
2021/12/03 03:39:25;;;;;;;24.58;9.52;;;;;;;;;;4995779;28;20093;-77
2021/12/03 03:41:53;;;;;;;24.27;10.00;;;;;;;;;;5008809;28;20084;-77
2021/12/03 03:44:20;;;;;;;32.80;10.45;;;;;;;;;;4990816;28;20533;-77
2021/12/03 03:46:49;;;;;;;26.73;10.27;;;;;;;;;;4990104;28;20148;-77
2021/12/03 03:49:17;;;;;;;31.00;10.82;;;;;;;;;;5008259;28;20057;-77
2021/12/03 03:51:46;;;;;;;34.30;10.95;;;;;;;;;;4997076;28;20137;-77
2021/12/03 03:54:13;;;;;;;26.70;10.57;;;;;;;;;;4970939;28;20629;-77
2021/12/03 03:56:41;;;;;;;37.80;11.15;;;;;;;;;;4986404;28;20042;-77
2021/12/03 03:59:08;;;;;;;29.27;12.15;;;;;;;;;;4990965;28;20050;-77
2021/12/03 04:01:35;;;;;;;30.52;12.02;;;;;;;;;;5016098;28;20640;-77
2021/12/03 04:04:02;;;;;;;30.27;11.35;;;;;;;;;;5010107;28;20077;-77
2021/12/03 04:06:29;;;;;;;32.95;11.95;;;;;;;;;;4999585;28;20054;-77
2021/12/03 04:08:57;;;;;;;33.08;11.95;;;;;;;;;;4975798;28;20412;-77
2021/12/03 04:11:25;;;;;;;31.05;11.98;;;;;;;;;;4993179;28;20550;-77
2021/12/03 04:13:52;;;;;;;35.90;11.68;;;;;;;;;;5004613;28;20085;-77
2021/12/03 04:16:20;;;;;;;46.58;12.60;;;;;;;;;;4991012;28;20125;-76
2021/12/03 04:18:47;;;;;;;35.78;11.73;;;;;;;;;;5011615;28;20050;-77
2021/12/03 04:21:15;;;;;;;36.30;12.02;;;;;;;;;;5007589;28;20436;-77
2021/12/03 04:23:43;;;;;;;36.08;12.38;;;;;;;;;;5010688;28;20137;-77
2021/12/03 04:26:10;;;;;;;33.22;12.63;;;;;;;;;;5004056;28;20845;-77
2021/12/03 04:28:37;;;;;;;32.58;10.35;;;;;;;;;;5001600;28;20053;-77
2021/12/03 04:31:04;;;;;;;30.90;11.52;;;;;;;;;;4989731;28;20866;-77
2021/12/03 04:33:32;;;;;;;29.05;11.18;;;;;;;;;;5012011;28;20053;-76
2021/12/03 04:35:59;;;;;;;35.28;11.00;;;;;;;;;;5008827;28;20454;-76
2021/12/03 04:38:26;;;;;;;30.10;10.75;;;;;;;;;;5008320;28;20045;-77
2021/12/03 04:40:54;;;;;;;32.83;9.90;;;;;;;;;;4993313;28;20115;-76
2021/12/03 04:43:22;;;;;;;26.08;9.52;;;;;;;;;;5009787;28;20156;-77
2021/12/03 04:45:49;;;;;;;36.53;9.95;;;;;;;;;;4993643;28;20547;-76
2021/12/03 04:48:17;;;;;;;29.42;9.00;;;;;;;;;;5010933;28;20136;-77
2021/12/03 04:50:46;;;;;;;21.13;8.23;;;;;;;;;;4992655;28;20061;-77
2021/12/03 04:53:14;;;;;;;24.23;8.63;;;;;;;;;;4974778;28;20058;-77
2021/12/03 04:55:41;;;;;;;25.52;7.97;;;;;;;;;;4976934;28;20090;-77
2021/12/03 04:58:09;;;;;;;24.13;8.65;;;;;;;;;;5012469;28;20428;-77
2021/12/03 05:00:38;;;;;;;22.92;8.93;;;;;;;;;;4993229;28;20073;-77
2021/12/03 05:03:07;;;;;;;27.98;8.45;;;;;;;;;;4993928;28;20050;-77
2021/12/03 05:05:35;;;;;;;18.92;7.28;;;;;;;;;;5017421;28;20056;-77
2021/12/03 05:08:10;;;;;;;27.05;7.28;;;;;;;;;;5024221;28;20093;-77
2021/12/03 05:10:40;;;;;;;23.23;9.20;;;;;;;;;;5011327;28;20090;-77
2021/12/03 05:13:13;;;;;;;31.65;9.80;;;;;;;;;;5011670;28;20133;-77
2021/12/03 05:15:41;;;;;;;30.08;9.75;;;;;;;;;;5010229;28;20788;-77
2021/12/03 05:18:09;;;;;;;21.33;8.93;;;;;;;;;;4993488;28;20052;-77
2021/12/03 05:20:37;;;;;;;24.67;8.30;;;;;;;;;;4990524;28;20176;-77
2021/12/03 05:23:04;;;;;;;24.85;9.88;;;;;;;;;;4991937;28;20085;-77
2021/12/03 05:25:31;;;;;;;36.55;11.43;;;;;;;;;;5010552;28;20145;-77
2021/12/03 05:27:59;;;;;;;29.60;10.82;;;;;;;;;;5011091;28;20512;-77
2021/12/03 05:30:26;;;;;;;27.40;10.50;;;;;;;;;;5010861;28;20073;-77
2021/12/03 05:32:54;;;;;;;28.23;10.68;;;;;;;;;;4994853;28;20119;-77
2021/12/03 05:35:21;;;;;;;27.73;10.05;;;;;;;;;;5019802;28;20739;-77
2021/12/03 05:37:49;;;;;;;33.60;10.52;;;;;;;;;;5011423;28;20635;-77
2021/12/03 05:40:17;;;;;;;38.92;11.38;;;;;;;;;;5014225;28;20154;-77
2021/12/03 05:42:45;;;;;;;27.35;9.98;;;;;;;;;;5011664;28;20418;-78
2021/12/03 05:45:14;;;;;;;33.22;11.80;;;;;;;;;;4995951;28;20661;-77
2021/12/03 05:47:41;;;;;;;34.47;10.85;;;;;;;;;;4981547;28;20136;-77
2021/12/03 05:50:11;;;;;;;33.75;12.00;;;;;;;;;;4992688;28;20096;-77
2021/12/03 05:52:38;;;;;;;30.35;12.00;;;;;;;;;;5010079;28;20744;-77
2021/12/03 05:55:06;;;;;;;35.53;11.10;;;;;;;;;;5011255;28;20104;-77
2021/12/03 05:57:33;;;;;;;31.95;11.73;;;;;;;;;;5009812;28;20211;-77
2021/12/03 06:00:02;;;;;;;32.97;10.95;;;;;;;;;;5010948;28;20125;-77
2021/12/03 06:02:29;;;;;;;38.35;11.75;;;;;;;;;;5011775;28;20052;-77
2021/12/03 06:04:57;;;;;;;32.47;10.13;;;;;;;;;;5019509;28;20170;-76
2021/12/03 06:07:24;;;;;;;35.05;11.80;;;;;;;;;;5008006;28;20501;-78
2021/12/03 06:09:51;;;;;;;35.90;11.32;;;;;;;;;;5031772;28;20138;-79
2021/12/03 06:15:47;;;;;;;32.92;11.10;;;;;;;;;;5008420;28;20049;-78
2021/12/03 06:18:14;;;;;;;30.25;10.82;;;;;;;;;;5010797;28;20499;-78
2021/12/03 06:20:42;;;;;;;34.63;11.05;;;;;;;;;;4993024;28;20054;-78
2021/12/03 06:23:09;;;;;;;36.67;11.18;;;;;;;;;;5009280;28;20140;-77
2021/12/03 06:25:36;;;;;;;34.88;11.77;;;;;;;;;;4993730;28;20077;-83
2021/12/03 06:28:03;;;;;;;27.60;9.98;;;;;;;;;;4994079;28;20093;-82
2021/12/03 06:30:30;;;;;;;39.38;9.88;;;;;;;;;;4991182;28;20522;-79
2021/12/03 06:32:58;;;;;;;31.60;10.23;;;;;;;;;;5005797;28;20140;-79
2021/12/03 06:35:25;;;;;;;28.20;10.30;;;;;;;;;;4989918;28;20071;-83
2021/12/03 06:37:52;;;;;;;35.85;11.75;;;;;;;;;;5008041;28;20054;-81
2021/12/03 06:40:22;;;;;;;23.88;9.35;;;;;;;;;;4977377;28;20050;-82
2021/12/03 06:42:49;;;;;;;36.65;10.52;;;;;;;;;;5008055;28;20157;-87
2021/12/03 06:45:16;;;;;;;47.55;11.82;;;;;;;;;;4993096;28;20081;-82
2021/12/03 06:47:43;;;;;;;29.50;10.98;;;;;;;;;;4994179;28;20081;-80
2021/12/03 06:50:16;;;;;;;29.20;11.13;;;;;;;;;;5012036;28;20490;-81
2021/12/03 06:52:45;;;;;;;30.13;11.00;;;;;;;;;;5012483;28;20092;-82
2021/12/03 06:55:14;;;;;;;27.55;11.20;;;;;;;;;;5012309;28;20061;-82
2021/12/03 06:57:44;;;;;;;27.33;11.32;;;;;;;;;;4994524;28;20054;-81
2021/12/03 07:00:13;;;;;;;28.55;11.55;;;;;;;;;;4994560;28;20080;-81
2021/12/03 07:02:41;;;;;;;30.77;11.13;;;;;;;;;;4994380;28;20081;-81
2021/12/03 07:05:08;;;;;;;38.80;11.52;;;;;;;;;;5002917;28;20050;-85
2021/12/03 07:07:36;;;;;;;35.53;11.63;;;;;;;;;;5009632;28;20103;-83
2021/12/03 07:10:04;;;;;;;33.13;12.18;;;;;;;;;;4997922;28;20050;-83
2021/12/03 07:12:34;;;;;;;39.22;12.10;;;;;;;;;;4994827;28;20592;-83
2021/12/03 07:15:01;;;;;;;46.85;13.55;;;;;;;;;;5012665;28;20060;-84
2021/12/03 07:17:32;;;;;;;41.30;13.02;;;;;;;;;;5011353;28;20086;-84
2021/12/03 07:20:04;;;;;;;35.67;12.55;;;;;;;;;;4995356;28;20049;-83
2021/12/03 07:22:33;;;;;;;46.35;13.20;;;;;;;;;;4994494;28;20105;-83
2021/12/03 07:25:00;;;;;;;37.40;13.93;;;;;;;;;;4992946;28;20702;-84
2021/12/03 07:27:27;;;;;;;32.53;14.43;;;;;;;;;;5011695;28;20480;-82
2021/12/03 07:29:54;;;;;;;35.63;12.68;;;;;;;;;;5011440;28;20119;-84
2021/12/03 07:32:22;;;;;;;36.05;14.00;;;;;;;;;;5011896;28;20050;-83
2021/12/03 07:34:50;;;;;;;39.17;14.75;;;;;;;;;;4995009;28;20068;-83
2021/12/03 07:37:17;;;;;;;37.03;14.55;;;;;;;;;;5019545;28;20100;-83
2021/12/03 07:39:45;;;;;;;48.38;16.10;;;;;;;;;;5004700;28;20125;-83
2021/12/03 07:42:12;;;;;;;44.67;15.38;;;;;;;;;;5021077;28;20144;-83
2021/12/03 07:44:39;;;;;;;44.08;15.73;;;;;;;;;;5004178;28;20042;-83
2021/12/03 07:47:06;;;;;;;43.60;16.10;;;;;;;;;;5017130;28;20077;-82
2021/12/03 07:49:34;;;;;;;50.10;17.08;;;;;;;;;;5023016;28;20133;-83
2021/12/03 07:52:01;;;;;;;44.92;16.95;;;;;;;;;;5010123;28;20082;-82
2021/12/03 07:54:28;;;;;;;55.35;18.00;;;;;;;;;;4996423;28;20081;-83
2021/12/03 07:56:55;;;;;;;54.13;19.23;;;;;;;;;;4998318;28;20100;-82
2021/12/03 07:59:23;;;;;;;46.22;18.67;;;;;;;;;;4997966;28;20096;-82
2021/12/03 08:01:50;;;;;;;53.17;20.20;;;;;;;;;;5015453;28;20765;-83
2021/12/03 08:04:17;;;;;;;44.50;19.60;;;;;;;;;;5015608;28;20062;-87
2021/12/03 08:06:48;;;;;;;46.35;20.45;;;;;;;;;;4985554;28;20077;-84
2021/12/03 08:09:15;;;;;;;56.78;19.48;;;;;;;;;;4978839;28;20089;-84
2021/12/03 08:11:42;;;;;;;57.67;20.55;;;;;;;;;;4995887;28;20136;-84
2021/12/03 08:14:09;;;;;;;53.47;19.98;;;;;;;;;;5009127;28;20140;-84
2021/12/03 08:16:38;;;;;;;45.92;19.80;;;;;;;;;;5003763;28;20077;-85
2021/12/03 08:19:06;;;;;;;52.28;20.42;;;;;;;;;;4997803;28;20407;-84
2021/12/03 08:21:33;;;;;;;55.55;20.67;;;;;;;;;;4997830;28;20085;-84
2021/12/03 08:24:01;;;;;;;46.70;21.00;;;;;;;;;;4997499;28;20137;-83
2021/12/03 08:26:29;;;;;;;44.85;18.92;;;;;;;;;;5014980;28;20141;-84
2021/12/03 08:28:56;;;;;;;51.22;20.13;;;;;;;;;;5014535;28;20169;-85
2021/12/03 08:31:25;;;;;;;41.92;19.05;;;;;;;;;;4996881;28;20156;-85
2021/12/03 08:33:53;;;;;;;38.22;18.35;;;;;;;;;;4997490;28;20054;-85
2021/12/03 08:36:20;;;;;;;43.00;19.15;;;;;;;;;;4984133;28;20133;-85
2021/12/03 08:38:47;;;;;;;42.03;17.77;;;;;;;;;;4995280;28;20109;-85
2021/12/03 08:41:19;;;;;;;45.08;18.73;;;;;;;;;;4981766;28;20479;-84
2021/12/03 08:43:47;;;;;;;50.95;19.38;;;;;;;;;;5023046;28;20046;-84
2021/12/03 08:46:56;;;;;;;43.83;18.23;;;;;;;;;;5014505;28;20054;-84
2021/12/03 08:49:26;;;;;;;47.90;18.42;;;;;;;;;;5010746;28;20050;-85
2021/12/03 08:54:54;;;;;;;46.05;18.77;;;;;;;;;;4994521;28;20054;-84
2021/12/03 08:57:23;;;;;;;47.03;18.10;;;;;;;;;;4995994;28;20161;-86
2021/12/03 08:59:54;;;;;;;43.20;17.90;;;;;;;;;;5013974;28;20631;-85
2021/12/03 09:02:22;;;;;;;39.65;17.42;;;;;;;;;;4982734;28;20080;-86
2021/12/03 09:04:49;;;;;;;47.30;18.65;;;;;;;;;;4996840;28;20073;-86
2021/12/03 09:07:19;;;;;;;56.35;19.20;;;;;;;;;;4996294;28;20053;-86
2021/12/03 09:09:46;;;;;;;48.35;18.42;;;;;;;;;;5014170;28;20054;-86
2021/12/03 09:12:14;;;;;;;46.92;18.85;;;;;;;;;;5022005;28;20065;-88
2021/12/03 09:14:49;;;;;;;37.60;17.17;;;;;;;;;;5029250;28;20049;-86
2021/12/03 09:25:06;;;;;;;45.20;17.45;;;;;;;;;;5013625;28;20770;-82
2021/12/03 09:27:34;;;;;;;35.97;16.42;;;;;;;;;;4995201;28;20765;-82
2021/12/03 09:30:06;;;;;;;36.78;16.80;;;;;;;;;;5017755;28;20499;-84
2021/12/03 09:32:36;;;;;;;36.88;16.25;;;;;;;;;;4991088;28;20108;-83
2021/12/03 09:35:04;;;;;;;43.42;17.95;;;;;;;;;;4996700;28;20057;-84
2021/12/03 09:37:32;;;;;;;34.33;15.18;;;;;;;;;;5000819;28;20050;-82
2021/12/03 09:40:05;;;;;;;36.42;16.50;;;;;;;;;;5007743;28;20124;-80
2021/12/03 09:42:38;;;;;;;45.92;17.10;;;;;;;;;;5015507;28;20211;-82
2021/12/03 09:45:08;;;;;;;42.38;16.98;;;;;;;;;;5015323;28;20073;-81
2021/12/03 09:47:39;;;;;;;34.58;15.52;;;;;;;;;;4994587;28;20077;-82
2021/12/03 09:50:17;;;;;;;39.83;16.02;;;;;;;;;;5004928;28;20450;-82
2021/12/03 09:55:36;;;;;;;31.02;14.98;;;;;;;;;;5004481;28;20127;-80
2021/12/03 09:58:16;;;;;;;37.40;15.50;;;;;;;;;;5013555;28;20078;-80
2021/12/03 10:00:54;;;;;;;30.63;14.27;;;;;;;;;;5014960;28;20115;-80
2021/12/03 10:12:21;;;;;;;33.25;13.65;;;;;;;;;;5003055;28;20047;-83
2021/12/03 10:14:50;;;;;;;30.80;12.73;;;;;;;;;;4993704;28;20078;-82
2021/12/03 10:29:33;;;;;;;33.00;11.75;;;;;;;;;;4953595;28;20097;-79
2021/12/03 10:45:59;;;;;;;31.65;12.80;;;;;;;;;;5008978;28;20053;-81
2021/12/03 10:48:42;;;;;;;28.73;12.10;;;;;;;;;;5011640;28;20104;-82
2021/12/03 10:54:12;;;;;;;25.80;11.80;;;;;;;;;;5013769;28;21527;-82
2021/12/03 11:07:27;;;;;;;33.90;11.70;;;;;;;;;;5011023;28;20578;-80
2021/12/03 11:13:02;;;;;;;32.80;12.05;;;;;;;;;;5011233;28;20410;-80
2021/12/03 11:50:00;;;;;;;28.73;12.63;;;;;;;;;;4994188;28;20140;-82
2021/12/03 11:52:01;;;;;;;31.15;11.88;;;;;;;;;;4996362;28;20085;-81
2021/12/03 11:55:28;;;;;;;35.88;13.30;;;;;;;;;;5012768;28;20081;-82
2021/12/03 12:26:15;;;;;;;44.13;16.08;;;;;;;;;;4999715;28;20403;-82
2021/12/03 13:11:45;;;;;;;56.20;17.77;;;;;;;;;;5013402;28;20129;-81
2021/12/03 13:14:39;;;;;;;62.38;17.98;;;;;;;;;;5014241;28;20099;-80
2021/12/03 13:17:28;;;;;;;55.83;19.13;;;;;;;;;;5007079;28;20100;-80
2021/12/03 13:20:17;;;;;;;50.20;17.27;;;;;;;;;;5013626;28;20129;-80
2021/12/03 13:59:36;;;;;;;58.50;19.13;;;;;;;;;;5012167;28;20069;-77
2021/12/03 14:08:22;;;;;;;61.80;20.83;;;;;;;;;;5019921;28;20077;-79
2021/12/03 14:11:02;;;;;;;60.55;19.67;;;;;;;;;;5007501;28;20123;-79
2021/12/03 14:45:41;;;;;;;61.63;19.50;;;;;;;;;;5012636;28;20085;-80
2021/12/03 14:57:14;;;;;;;53.30;18.63;;;;;;;;;;4932155;29;20071;-80
2021/12/03 15:00:09;;;;;;;56.97;19.23;;;;;;;;;;4979630;28;20498;-80
2021/12/03 15:03:03;;;;;;;53.33;20.00;;;;;;;;;;4994438;28;20050;-81
2021/12/03 15:05:43;;;;;;;52.15;18.00;;;;;;;;;;4994957;28;20120;-80
2021/12/03 15:08:14;;;;;;;49.45;16.73;;;;;;;;;;5004613;28;20568;-80
2021/12/03 15:19:17;;;;;;;54.25;17.10;;;;;;;;;;5024089;28;20057;-79
2021/12/03 15:33:08;;;;;;;55.03;19.00;;;;;;;;;;5007411;28;20073;-80
2021/12/03 15:57:36;;;;;;;46.45;16.77;;;;;;;;;;5018984;28;20119;-80
2021/12/03 16:08:17;;;;;;;50.35;17.17;;;;;;;;;;5019973;28;20046;-79
2021/12/03 16:21:28;;;;;;;52.05;17.92;;;;;;;;;;5015178;28;20077;-79
2021/12/03 16:54:46;;;;;;;47.55;13.77;;;;;;;;;;5005128;28;20816;-80
2021/12/03 16:57:19;;;;;;;50.85;14.25;;;;;;;;;;4996739;28;20735;-80
2021/12/03 16:59:47;;;;;;;44.38;14.02;;;;;;;;;;5013155;28;20050;-80
2021/12/03 17:02:28;;;;;;;40.83;13.70;;;;;;;;;;5013505;28;20453;-80
2021/12/03 17:05:16;;;;;;;46.88;12.82;;;;;;;;;;4995249;28;20096;-80
2021/12/03 17:08:21;;;;;;;42.38;14.68;;;;;;;;;;5012519;28;20050;-79
2021/12/03 17:13:47;;;;;;;33.05;12.95;;;;;;;;;;4992376;28;20050;-80
2021/12/03 17:28:30;;;;;;;34.60;12.88;;;;;;;;;;5011376;28;20467;-81
2021/12/03 17:50:14;;;;;;;32.95;11.63;;;;;;;;;;5006680;28;20120;-82
2021/12/03 17:58:43;;;;;;;30.73;11.70;;;;;;;;;;5010799;28;20080;-84
2021/12/03 18:01:21;;;;;;;42.67;13.10;;;;;;;;;;5009044;28;20833;-83
2021/12/03 18:47:58;;;;;;;27.10;10.48;;;;;;;;;;5008257;28;20451;-81
2021/12/03 18:53:21;;;;;;;28.23;10.90;;;;;;;;;;5012763;28;20053;-79
2021/12/03 18:55:57;;;;;;;26.33;10.55;;;;;;;;;;4995331;28;20173;-84
2021/12/03 18:58:26;;;;;;;26.58;10.20;;;;;;;;;;5013290;28;20088;-84
2021/12/03 19:00:56;;;;;;;32.92;10.20;;;;;;;;;;5015126;28;20072;-84
2021/12/03 19:06:36;;;;;;;36.47;10.13;;;;;;;;;;4997092;28;20050;-84
2021/12/03 19:11:43;;;;;;;51.08;17.65;;;;;;;;;;5007762;28;20112;-86
2021/12/03 19:14:11;;;;;;;34.40;10.82;;;;;;;;;;4995211;28;20081;-86
2021/12/03 19:16:39;;;;;;;28.25;9.88;;;;;;;;;;4992593;28;20055;-86
2021/12/03 19:19:08;;;;;;;24.48;9.00;;;;;;;;;;5012277;28;20664;-86
2021/12/03 19:21:39;;;;;;;31.80;9.75;;;;;;;;;;5012554;28;20042;-85
2021/12/03 19:24:12;;;;;;;35.53;10.30;;;;;;;;;;4994755;28;20084;-85
2021/12/03 19:26:45;;;;;;;28.15;9.32;;;;;;;;;;4994767;28;20057;-86
2021/12/03 19:29:18;;;;;;;27.55;9.38;;;;;;;;;;4981470;28;20066;-85
2021/12/03 19:31:51;;;;;;;30.25;9.88;;;;;;;;;;4993891;28;20553;-85
2021/12/03 19:34:24;;;;;;;21.17;9.27;;;;;;;;;;4994589;28;20108;-85
2021/12/03 19:36:53;;;;;;;23.77;9.20;;;;;;;;;;4998620;28;20163;-85
2021/12/03 19:39:24;;;;;;;20.00;9.13;;;;;;;;;;5025755;28;20054;-85
2021/12/03 19:42:01;;;;;;;20.60;8.63;;;;;;;;;;4997682;28;20062;-85
2021/12/03 19:44:42;;;;;;;25.95;8.90;;;;;;;;;;4991946;28;20061;-85
2021/12/03 19:47:13;;;;;;;24.67;8.80;;;;;;;;;;4994942;28;20121;-85
2021/12/03 19:52:46;;;;;;;28.92;9.57;;;;;;;;;;4998551;28;20139;-85
2021/12/03 19:55:13;;;;;;;29.13;9.52;;;;;;;;;;5026582;28;20081;-84
2021/12/03 19:57:40;;;;;;;31.98;9.43;;;;;;;;;;5011925;28;20516;-85
2021/12/03 20:00:08;;;;;;;22.48;8.82;;;;;;;;;;5032183;28;20096;-86
2021/12/03 20:02:35;;;;;;;25.17;9.43;;;;;;;;;;5016926;28;20046;-86
2021/12/03 20:05:04;;;;;;;27.45;8.88;;;;;;;;;;5031990;28;20069;-85
2021/12/03 20:07:31;;;;;;;31.83;9.10;;;;;;;;;;5018969;28;20100;-84
2021/12/03 20:10:01;;;;;;;25.30;9.43;;;;;;;;;;5012116;28;20107;-84
2021/12/03 20:12:31;;;;;;;25.70;8.68;;;;;;;;;;5018429;28;20120;-85
2021/12/03 20:14:59;;;;;;;23.73;9.73;;;;;;;;;;5018258;28;20077;-84
2021/12/03 20:17:30;;;;;;;27.35;9.38;;;;;;;;;;5000666;28;20053;-85
2021/12/03 20:20:00;;;;;;;24.63;8.32;;;;;;;;;;5002895;28;20138;-85
2021/12/03 20:25:18;;;;;;;29.02;8.82;;;;;;;;;;5017411;28;20616;-84
2021/12/03 20:38:13;;;;;;;30.13;9.82;;;;;;;;;;5008544;28;20088;-84
2021/12/03 20:40:51;;;;;;;25.25;10.48;;;;;;;;;;4996510;28;20057;-85
2021/12/03 20:46:21;;;;;;;24.52;9.35;;;;;;;;;;5017375;28;20089;-85
2021/12/03 21:11:21;;;;;;;25.00;10.27;;;;;;;;;;4952720;29;20059;-86
2021/12/03 21:13:50;;;;;;;27.20;9.65;;;;;;;;;;4988120;28;20085;-86
2021/12/03 21:19:13;;;;;;;26.27;9.88;;;;;;;;;;5022032;28;20076;-86
2021/12/03 21:21:44;;;;;;;25.35;10.20;;;;;;;;;;4998634;28;20050;-87
2021/12/03 21:24:18;;;;;;;28.45;10.45;;;;;;;;;;5005177;28;20049;-85
2021/12/03 21:26:48;;;;;;;26.83;10.25;;;;;;;;;;5002093;28;20132;-87
2021/12/03 21:32:17;;;;;;;19.65;9.10;;;;;;;;;;5023350;28;20061;-86
2021/12/03 21:40:26;;;;;;;22.55;9.50;;;;;;;;;;5011966;28;20137;-86
2021/12/03 21:42:53;;;;;;;23.35;10.98;;;;;;;;;;4994874;28;20046;-85
2021/12/03 21:45:25;;;;;;;26.33;9.40;;;;;;;;;;4994001;28;20068;-84
2021/12/03 21:47:52;;;;;;;26.50;10.27;;;;;;;;;;4994612;28;20077;-86
2021/12/03 21:50:19;;;;;;;26.95;10.15;;;;;;;;;;4994085;28;20097;-86
2021/12/03 21:52:46;;;;;;;19.48;8.65;;;;;;;;;;4995703;28;20085;-85
2021/12/03 21:55:13;;;;;;;21.58;9.73;;;;;;;;;;4995193;28;20832;-86
2021/12/03 21:57:41;;;;;;;26.38;9.98;;;;;;;;;;5006067;28;20073;-84
2021/12/03 22:00:08;;;;;;;23.88;9.48;;;;;;;;;;5011353;28;20131;-86
2021/12/03 22:02:39;;;;;;;23.98;9.60;;;;;;;;;;4997401;28;20121;-85
2021/12/03 22:05:07;;;;;;;20.02;8.95;;;;;;;;;;4990362;28;20066;-85
2021/12/03 22:07:45;;;;;;;23.45;9.18;;;;;;;;;;5010798;28;20065;-84
2021/12/03 22:10:15;;;;;;;20.75;9.45;;;;;;;;;;4994052;28;20402;-85
2021/12/03 22:12:44;;;;;;;22.10;9.10;;;;;;;;;;5012461;28;20525;-85
2021/12/03 22:15:17;;;;;;;26.95;9.60;;;;;;;;;;4997285;28;20050;-85
2021/12/03 22:17:45;;;;;;;22.52;9.60;;;;;;;;;;4991685;28;20062;-85
2021/12/03 22:20:14;;;;;;;19.63;9.48;;;;;;;;;;4992416;28;20058;-85
2021/12/03 22:22:47;;;;;;;26.65;9.52;;;;;;;;;;4995367;28;20088;-85
2021/12/03 22:25:14;;;;;;;28.00;10.75;;;;;;;;;;4994685;28;20081;-84
2021/12/03 22:27:41;;;;;;;27.38;10.32;;;;;;;;;;4996271;28;20093;-85
2021/12/03 22:30:08;;;;;;;24.02;11.27;;;;;;;;;;4988828;28;20054;-85
2021/12/03 22:32:36;;;;;;;19.95;9.73;;;;;;;;;;5012002;28;20089;-84
2021/12/03 22:35:04;;;;;;;23.90;10.23;;;;;;;;;;5013546;28;20129;-84
2021/12/03 22:37:31;;;;;;;24.75;10.45;;;;;;;;;;5025810;28;20084;-84
2021/12/03 22:40:02;;;;;;;25.15;11.20;;;;;;;;;;5004910;28;20149;-84
2021/12/03 22:42:29;;;;;;;25.23;10.27;;;;;;;;;;4994027;28;20487;-85
2021/12/03 22:44:56;;;;;;;21.52;10.32;;;;;;;;;;5011864;28;20139;-84
2021/12/03 22:47:36;;;;;;;21.15;10.02;;;;;;;;;;4990936;28;20133;-84
2021/12/03 22:52:45;;;;;;;31.55;11.45;;;;;;;;;;5011935;28;20054;-85
2021/12/03 22:55:12;;;;;;;27.52;10.88;;;;;;;;;;4994416;28;20061;-84